Time;durP1;ratioP1;P1;durP2;ratioP2;P2;SDS_P1;SDS_P2;PMS_P1;PMS_P2;Temp;Humidity;BMP_temperature;BMP_pressure;BME280_temperature;BME280_humidity;BME280_pressure;Samples;Min_cycle;Max_cycle;Signal;HPM_P1;HPM_P2
2021/12/13 00:00:07;;;;;;;2.72;1.30;;;19.80;48.50;;;;;;5095554;28;20077;-91
2021/12/13 00:02:44;;;;;;;3.05;1.60;;;19.80;48.50;;;;;;5077303;28;20032;-92
2021/12/13 00:05:45;;;;;;;1.73;1.13;;;19.80;48.70;;;;;;5078630;28;20503;-90
2021/12/13 00:08:17;;;;;;;2.40;1.13;;;19.80;48.50;;;;;;5039252;28;20127;-89
2021/12/13 00:10:51;;;;;;;2.25;1.33;;;19.70;48.60;;;;;;5095446;28;20047;-87
2021/12/13 00:13:26;;;;;;;4.70;1.40;;;19.70;48.70;;;;;;5095644;28;20099;-90
2021/12/13 00:15:56;;;;;;;2.50;1.38;;;19.70;48.80;;;;;;5077318;28;20028;-91
2021/12/13 00:18:29;;;;;;;1.33;1.02;;;19.70;48.80;;;;;;5077424;28;20075;-88
2021/12/13 00:21:07;;;;;;;2.35;1.17;;;19.70;48.80;;;;;;5077329;28;20044;-92
2021/12/13 00:23:42;;;;;;;2.47;1.20;;;19.60;48.70;;;;;;5060545;28;20480;-88
2021/12/13 00:26:09;;;;;;;3.38;1.30;;;19.60;48.80;;;;;;5095084;28;20036;-87
2021/12/13 00:28:39;;;;;;;2.30;1.20;;;19.60;48.80;;;;;;5077591;28;20020;-90
2021/12/13 00:31:26;;;;;;;4.07;1.30;;;19.60;48.80;;;;;;5095239;28;20043;-88
2021/12/13 00:34:05;;;;;;;2.25;1.25;;;19.60;48.80;;;;;;5094765;28;20024;-90
2021/12/13 00:37:09;;;;;;;2.45;1.13;;;19.50;49.90;;;;;;5077132;28;20028;-92
2021/12/13 00:39:40;;;;;;;;;;;19.50;48.70;;;;;;4993737;28;20034;-89
2021/12/13 00:42:07;;;;;;;1.58;0.90;;;19.40;48.70;;;;;;5045142;28;20027;-89
2021/12/13 00:44:46;;;;;;;3.47;1.33;;;19.40;49.00;;;;;;5056840;28;20028;-90
2021/12/13 00:47:24;;;;;;;3.63;1.20;;;19.40;49.00;;;;;;5074706;28;20092;-90
2021/12/13 00:50:02;;;;;;;1.65;1.10;;;19.40;49.00;;;;;;5074745;28;20021;-92
2021/12/13 00:52:31;;;;;;;1.90;1.00;;;19.40;48.90;;;;;;5074530;28;20116;-92
2021/12/13 00:54:57;;;;;;;3.42;1.42;;;19.40;49.00;;;;;;5056473;28;20086;-89
2021/12/13 00:57:29;;;;;;;1.98;1.00;;;19.40;49.00;;;;;;5056496;28;20090;-90
2021/12/13 01:00:28;;;;;;;1.90;1.15;;;19.40;49.00;;;;;;5056388;28;20028;-90
2021/12/13 01:03:03;;;;;;;3.10;1.20;;;19.30;49.00;;;;;;5045777;28;20024;-90
2021/12/13 01:05:45;;;;;;;2.88;1.30;;;19.30;49.00;;;;;;5056284;28;20028;-88
2021/12/13 01:08:51;;;;;;;2.40;1.08;;;19.30;49.10;;;;;;5074108;28;20028;-91
2021/12/13 01:11:38;;;;;;;1.75;1.00;;;19.30;49.10;;;;;;5026943;28;20036;-91
2021/12/13 01:14:19;;;;;;;2.15;1.20;;;19.20;49.10;;;;;;5074112;28;20017;-92
2021/12/13 01:17:04;;;;;;;3.90;1.50;;;19.20;49.10;;;;;;5056364;28;20119;-87
2021/12/13 01:19:52;;;;;;;1.92;1.10;;;19.20;49.10;;;;;;5056220;28;20039;-92
2021/12/13 01:22:42;;;;;;;1.52;0.88;;;19.20;49.20;;;;;;5073845;28;20037;-90
2021/12/13 01:25:24;;;;;;;1.92;0.93;;;19.20;49.20;;;;;;5073510;28;20720;-88
2021/12/13 01:28:03;;;;;;;3.28;1.10;;;19.10;49.20;;;;;;5073664;28;20065;-88
2021/12/13 01:30:36;;;;;;;2.47;1.13;;;19.10;49.20;;;;;;5073913;28;20024;-91
2021/12/13 01:33:04;;;;;;;;;;;19.10;49.20;;;;;;5074017;28;20032;-91
2021/12/13 01:35:33;;;;;;;2.47;1.10;;;19.10;49.20;;;;;;5073749;28;19905;-88
2021/12/13 01:38:04;;;;;;;1.27;0.80;;;19.00;49.20;;;;;;5073543;28;20021;-90
2021/12/13 01:40:34;;;;;;;2.00;1.10;;;19.00;49.30;;;;;;5055642;28;20048;-92
2021/12/13 01:43:12;;;;;;;1.80;1.00;;;19.00;49.20;;;;;;5073134;28;20057;-89
2021/12/13 01:45:41;;;;;;;2.67;0.82;;;19.00;49.30;;;;;;5054628;28;20028;-91
2021/12/13 01:48:15;;;;;;;1.70;0.95;;;19.00;49.30;;;;;;5073252;28;20107;-91
2021/12/13 01:50:48;;;;;;;1.17;0.70;;;19.00;49.30;;;;;;5073271;28;20034;-88
2021/12/13 01:53:16;;;;;;;1.98;1.00;;;19.00;49.40;;;;;;5055593;28;20056;-92
2021/12/13 01:55:45;;;;;;;2.25;0.93;;;19.00;49.40;;;;;;5073444;28;20029;-90
2021/12/13 02:01:14;;;;;;;1.27;1.00;;;19.00;49.50;;;;;;5057217;28;20063;-89
2021/12/13 02:03:45;;;;;;;1.92;0.85;;;18.90;49.60;;;;;;5073340;28;20074;-89
2021/12/13 02:06:21;;;;;;;1.95;0.80;;;18.90;49.50;;;;;;5055163;28;20111;-90
2021/12/13 02:08:51;;;;;;;1.63;0.90;;;18.90;49.40;;;;;;5054925;28;20074;-92
2021/12/13 02:11:17;;;;;;;1.83;1.10;;;18.90;49.50;;;;;;5054964;28;20421;-91
2021/12/13 02:14:03;;;;;;;1.27;0.90;;;18.80;49.40;;;;;;5072981;28;20025;-92
2021/12/13 02:19:32;;;;;;;1.83;0.95;;;18.80;49.50;;;;;;5073147;28;20087;-88
2021/12/13 02:22:19;;;;;;;2.05;1.10;;;18.80;49.50;;;;;;5072694;28;20123;-88
2021/12/13 02:24:46;;;;;;;1.70;1.02;;;18.80;49.50;;;;;;5072881;28;20035;-92
2021/12/13 02:27:12;;;;;;;2.58;1.05;;;18.80;49.60;;;;;;5055029;28;20056;-89
2021/12/13 02:29:38;;;;;;;1.67;0.90;;;18.70;49.50;;;;;;5054796;28;20052;-89
2021/12/13 02:32:09;;;;;;;1.10;1.00;;;18.80;49.60;;;;;;5054715;28;20017;-88
2021/12/13 02:34:42;;;;;;;1.80;1.05;;;18.80;49.70;;;;;;5072817;28;20516;-88
2021/12/13 02:37:09;;;;;;;4.72;1.23;;;18.70;49.60;;;;;;5054732;28;20115;-90
2021/12/13 02:39:46;;;;;;;2.08;0.80;;;18.70;49.70;;;;;;5054747;28;20032;-89
2021/12/13 02:42:17;;;;;;;1.02;0.80;;;18.70;49.80;;;;;;5054856;28;20036;-89
2021/12/13 02:44:51;;;;;;;2.08;1.10;;;18.60;49.70;;;;;;5054780;28;20378;-91
2021/12/13 02:47:33;;;;;;;1.52;1.00;;;18.60;49.70;;;;;;5054644;28;20045;-88
2021/12/13 02:50:00;;;;;;;1.13;0.75;;;18.70;49.80;;;;;;5072633;28;20477;-92
2021/12/13 02:52:27;;;;;;;1.80;1.00;;;18.60;49.80;;;;;;5072314;28;20047;-92
2021/12/13 02:55:01;;;;;;;1.45;0.70;;;18.60;50.70;;;;;;5072719;28;20059;-92
2021/12/13 02:57:34;;;;;;;1.38;0.80;;;18.60;49.80;;;;;;5075067;28;20078;-88
2021/12/13 03:00:05;;;;;;;0.95;0.73;;;18.60;49.80;;;;;;5058719;28;20074;-88
2021/12/13 03:02:40;;;;;;;0.90;0.68;;;18.60;49.90;;;;;;5076609;28;20089;-87
2021/12/13 03:05:11;;;;;;;1.55;0.90;;;18.60;49.80;;;;;;5058375;28;20024;-89
2021/12/13 03:07:42;;;;;;;1.13;0.75;;;18.50;49.80;;;;;;5059195;28;20377;-89
2021/12/13 03:10:15;;;;;;;1.48;0.80;;;18.60;49.90;;;;;;5058360;28;20086;-89
2021/12/13 03:12:40;;;;;;;1.30;0.90;;;18.50;49.90;;;;;;5058371;28;20058;-88
2021/12/13 03:15:13;;;;;;;1.02;0.80;;;18.50;49.90;;;;;;5058540;28;20048;-88
2021/12/13 03:18:08;;;;;;;1.77;0.85;;;18.50;49.90;;;;;;5058436;28;20025;-89
2021/12/13 03:21:01;;;;;;;1.17;0.80;;;18.50;49.80;;;;;;5054411;28;20041;-89
2021/12/13 03:23:32;;;;;;;2.70;0.93;;;18.50;49.90;;;;;;5076043;28;20036;-89
2021/12/13 03:26:06;;;;;;;1.45;0.98;;;18.40;50.00;;;;;;5058216;28;20031;-88
2021/12/13 03:29:01;;;;;;;1.85;0.70;;;18.40;49.90;;;;;;5076255;28;20025;-90
2021/12/13 03:31:34;;;;;;;1.00;0.80;;;18.40;49.90;;;;;;5057975;28;20033;-88
2021/12/13 03:34:13;;;;;;;1.42;1.00;;;18.40;50.00;;;;;;5041686;28;20093;-87
2021/12/13 03:36:57;;;;;;;1.60;0.95;;;18.40;50.00;;;;;;5057972;28;20024;-90
2021/12/13 03:39:41;;;;;;;1.38;0.80;;;18.40;50.10;;;;;;5058068;28;20030;-89
2021/12/13 03:42:17;;;;;;;1.63;0.80;;;18.40;50.10;;;;;;5077184;28;20055;-92
2021/12/13 03:44:47;;;;;;;1.83;0.70;;;18.30;50.10;;;;;;5096130;28;20469;-88
2021/12/13 03:47:19;;;;;;;1.40;0.80;;;18.30;50.10;;;;;;5077761;28;20020;-90
2021/12/13 03:49:49;;;;;;;1.80;0.75;;;18.30;50.10;;;;;;5061732;28;20028;-88
2021/12/13 03:52:18;;;;;;;1.58;0.90;;;18.30;50.10;;;;;;5077643;28;20024;-92
2021/12/13 03:54:45;;;;;;;1.92;0.82;;;18.30;50.10;;;;;;5077628;28;20024;-89
2021/12/13 03:57:13;;;;;;;2.08;0.85;;;18.30;50.10;;;;;;5077567;28;20027;-88
2021/12/13 03:59:43;;;;;;;1.15;0.80;;;18.30;50.20;;;;;;5077430;28;20381;-88
2021/12/13 04:02:14;;;;;;;1.83;0.93;;;18.30;50.30;;;;;;5077550;28;20132;-90
2021/12/13 04:04:52;;;;;;;1.30;0.70;;;18.30;50.30;;;;;;5095739;28;20462;-90
2021/12/13 04:07:21;;;;;;;1.30;0.88;;;18.30;50.30;;;;;;5095384;28;20051;-90
2021/12/13 04:09:55;;;;;;;1.48;0.73;;;18.30;50.30;;;;;;5076891;28;20100;-90
2021/12/13 04:12:28;;;;;;;1.10;0.77;;;18.20;50.40;;;;;;5077076;28;20028;-91
2021/12/13 04:15:00;;;;;;;1.90;0.90;;;18.20;50.40;;;;;;5095657;28;20068;-89
2021/12/13 04:18:28;;;;;;;1.58;0.77;;;18.20;50.30;;;;;;5077363;28;20114;-91
2021/12/13 04:20:29;;;;;;;1.33;0.70;;;18.20;50.40;;;;;;5086735;28;20043;-91
2021/12/13 04:22:59;;;;;;;1.45;0.65;;;18.10;50.50;;;;;;5095346;28;20039;-89
2021/12/13 04:25:30;;;;;;;2.28;1.00;;;18.20;50.40;;;;;;5095297;28;20028;-90
2021/12/13 04:28:02;;;;;;;1.48;0.80;;;18.20;50.40;;;;;;5095441;28;20082;-88
2021/12/13 04:30:33;;;;;;;1.37;0.60;;;18.10;50.40;;;;;;5077130;28;20027;-92
2021/12/13 04:33:11;;;;;;;0.98;0.52;;;18.10;50.40;;;;;;5095398;28;20137;-91
2021/12/13 04:35:40;;;;;;;1.50;0.82;;;18.10;50.40;;;;;;5094819;28;20028;-89
2021/12/13 04:38:07;;;;;;;0.80;0.50;;;18.10;50.40;;;;;;5094981;28;20072;-90
2021/12/13 04:40:37;;;;;;;1.42;0.70;;;18.10;50.50;;;;;;5094562;28;20071;-90
2021/12/13 04:43:05;;;;;;;1.77;0.70;;;18.10;50.50;;;;;;5095115;28;20346;-92
2021/12/13 04:45:32;;;;;;;1.42;0.80;;;18.00;50.50;;;;;;5094717;28;20024;-91
2021/12/13 04:47:58;;;;;;;1.13;0.60;;;18.00;50.50;;;;;;5094951;28;20024;-92
2021/12/13 04:50:44;;;;;;;2.60;0.70;;;18.00;50.50;;;;;;5076428;28;20020;-90
2021/12/13 04:53:17;;;;;;;1.77;0.70;;;18.00;50.50;;;;;;5094768;28;20483;-89
2021/12/13 04:55:43;;;;;;;1.17;0.50;;;18.00;50.50;;;;;;5076722;28;20046;-88
2021/12/13 04:58:12;;;;;;;2.58;0.63;;;18.00;51.60;;;;;;5076637;28;20021;-92
2021/12/13 05:00:42;;;;;;;0.68;0.50;;;18.00;50.70;;;;;;5076345;28;20074;-91
2021/12/13 05:03:11;;;;;;;1.83;0.50;;;18.00;50.60;;;;;;5094128;28;20035;-87
2021/12/13 05:05:37;;;;;;;1.48;0.90;;;18.00;50.70;;;;;;5094213;28;20024;-89
2021/12/13 05:08:07;;;;;;;2.90;1.10;;;18.00;50.80;;;;;;5042946;28;20046;-92
2021/12/13 05:10:33;;;;;;;2.70;1.00;;;18.00;50.80;;;;;;5076616;28;20039;-93
2021/12/13 05:13:13;;;;;;;1.40;0.98;;;17.90;50.80;;;;;;5076187;28;20062;-89
2021/12/13 05:15:42;;;;;;;1.70;0.93;;;17.90;50.80;;;;;;5094256;28;20063;-91
2021/12/13 05:18:24;;;;;;;1.80;0.93;;;17.90;50.90;;;;;;5076009;28;20449;-89
2021/12/13 05:21:04;;;;;;;1.33;0.80;;;17.90;50.90;;;;;;5093253;28;20047;-87
2021/12/13 05:23:32;;;;;;;1.20;0.70;;;17.90;50.90;;;;;;5093768;28;20423;-91
2021/12/13 05:26:02;;;;;;;1.92;0.80;;;17.90;51.00;;;;;;5094120;28;20414;-88
2021/12/13 05:28:50;;;;;;;1.60;0.52;;;17.80;50.80;;;;;;5075786;28;20031;-93
2021/12/13 05:31:20;;;;;;;1.10;0.70;;;17.90;50.80;;;;;;5075991;28;20028;-89
2021/12/13 05:33:52;;;;;;;0.90;0.70;;;17.80;50.90;;;;;;5093926;28;20024;-92
2021/12/13 05:36:23;;;;;;;1.70;0.77;;;17.80;50.90;;;;;;5075938;28;20073;-88
2021/12/13 05:38:59;;;;;;;1.58;0.70;;;17.80;50.90;;;;;;5075464;28;20059;-90
2021/12/13 05:41:28;;;;;;;1.52;0.60;;;17.80;51.00;;;;;;5093627;28;20047;-91
2021/12/13 05:44:01;;;;;;;1.77;0.60;;;17.80;50.90;;;;;;5093705;28;20027;-88
2021/12/13 05:46:47;;;;;;;;;;;17.80;50.80;;;;;;5094260;28;20082;-90
2021/12/13 05:49:26;;;;;;;1.27;0.80;;;17.70;50.70;;;;;;5075562;28;19911;-90
2021/12/13 05:52:07;;;;;;;1.77;0.63;;;17.70;50.90;;;;;;5093402;28;20023;-89
2021/12/13 05:54:37;;;;;;;1.08;0.50;;;17.70;50.90;;;;;;5075409;28;20489;-89
2021/12/13 05:57:11;;;;;;;1.77;0.65;;;17.80;51.00;;;;;;5075451;28;20046;-89
2021/12/13 05:59:55;;;;;;;1.73;0.80;;;17.70;50.90;;;;;;5093499;28;20024;-92
2021/12/13 06:02:38;;;;;;;1.20;0.60;;;17.70;50.90;;;;;;5075447;28;20527;-89
2021/12/13 06:05:26;;;;;;;2.17;0.80;;;17.70;51.30;;;;;;5075283;28;20024;-91
2021/12/13 06:08:09;;;;;;;3.10;0.90;;;17.70;50.90;;;;;;5093540;28;20034;-91
2021/12/13 06:10:49;;;;;;;2.15;0.80;;;17.70;51.10;;;;;;5093178;28;20044;-89
2021/12/13 06:13:46;;;;;;;3.30;0.82;;;17.70;51.40;;;;;;5075222;28;20027;-89
2021/12/13 06:16:19;;;;;;;3.20;1.15;;;17.70;51.50;;;;;;5058889;28;20036;-91
2021/12/13 06:19:11;;;;;;;1.17;0.70;;;17.80;51.60;;;;;;5075139;28;20063;-90
2021/12/13 06:21:51;;;;;;;1.92;0.75;;;17.80;51.60;;;;;;5074912;28;20036;-90
2021/12/13 06:24:34;;;;;;;2.28;0.75;;;17.90;51.70;;;;;;5075014;28;20020;-91
2021/12/13 06:27:06;;;;;;;2.33;0.80;;;18.00;51.60;;;;;;5093100;28;20031;-88
2021/12/13 06:29:50;;;;;;;1.70;0.60;;;18.10;51.60;;;;;;5059318;28;20273;-89
2021/12/13 06:32:36;;;;;;;1.10;0.50;;;18.20;51.40;;;;;;5074706;28;20024;-91
2021/12/13 06:35:27;;;;;;;2.17;0.60;;;18.30;51.20;;;;;;5074988;28;20030;-90
2021/12/13 06:37:53;;;;;;;1.85;0.60;;;18.50;51.10;;;;;;5063392;28;20028;-89
2021/12/13 06:40:27;;;;;;;1.67;0.57;;;18.60;50.70;;;;;;5074458;28;20062;-87
2021/12/13 06:42:59;;;;;;;1.25;0.60;;;18.80;50.60;;;;;;5058231;28;20542;-90
2021/12/13 06:45:34;;;;;;;0.88;0.50;;;19.00;50.40;;;;;;5075012;28;20384;-89
2021/12/13 06:48:04;;;;;;;2.92;0.60;;;19.10;50.10;;;;;;5093070;28;20060;-90
2021/12/13 06:50:35;;;;;;;2.17;0.55;;;19.30;49.80;;;;;;5092793;28;20020;-90
2021/12/13 06:53:18;;;;;;;2.40;0.55;;;19.40;49.60;;;;;;5074591;28;20028;-88
2021/12/13 06:55:45;;;;;;;2.20;0.60;;;19.60;49.50;;;;;;5092626;28;20069;-89
2021/12/13 06:58:20;;;;;;;1.67;0.60;;;19.60;49.20;;;;;;5074859;28;20020;-90
2021/12/13 07:00:49;;;;;;;1.08;0.50;;;19.70;49.00;;;;;;5074649;28;20024;-90
2021/12/13 07:03:23;;;;;;;3.45;0.65;;;19.80;48.80;;;;;;5092488;28;20035;-91
2021/12/13 07:05:53;;;;;;;3.28;0.60;;;19.90;48.70;;;;;;5091522;28;20111;-88
2021/12/13 07:08:27;;;;;;;1.48;0.43;;;20.00;48.70;;;;;;5092471;28;20078;-89
2021/12/13 07:10:52;;;;;;;1.30;0.50;;;20.10;48.60;;;;;;5092466;28;20023;-93
2021/12/13 07:13:35;;;;;;;2.28;0.80;;;20.20;48.50;;;;;;5073527;28;20413;-90
2021/12/13 07:16:32;;;;;;;2.08;0.80;;;20.20;48.30;;;;;;5073764;28;20496;-89
2021/12/13 07:19:18;;;;;;;2.10;0.70;;;20.30;48.40;;;;;;5073015;28;20043;-89
2021/12/13 07:21:55;;;;;;;3.92;0.80;;;20.30;48.20;;;;;;5076480;28;20043;-90
2021/12/13 07:24:42;;;;;;;1.80;0.50;;;20.30;48.20;;;;;;5073675;28;20388;-90
2021/12/13 07:27:08;;;;;;;2.72;0.60;;;20.40;48.20;;;;;;5073863;28;20047;-90
2021/12/13 07:29:48;;;;;;;2.05;0.75;;;20.40;48.20;;;;;;5091747;28;20024;-89
2021/12/13 07:32:35;;;;;;;3.65;0.80;;;20.40;48.10;;;;;;5073756;28;20040;-89
2021/12/13 07:35:13;;;;;;;1.75;0.50;;;20.40;48.10;;;;;;5073545;28;20027;-89
2021/12/13 07:38:19;;;;;;;1.38;0.60;;;20.40;48.10;;;;;;5091913;28;20021;-91
2021/12/13 07:40:51;;;;;;;2.38;0.55;;;20.40;48.20;;;;;;5068099;28;20050;-89
2021/12/13 07:43:29;;;;;;;4.03;0.70;;;20.40;48.10;;;;;;5092487;28;20374;-90
2021/12/13 07:46:19;;;;;;;1.00;0.52;;;20.40;48.10;;;;;;5095391;28;20063;-90
2021/12/13 07:48:45;;;;;;;1.67;0.60;;;20.40;48.10;;;;;;5077537;28;20081;-90
2021/12/13 07:51:15;;;;;;;2.42;0.50;;;20.40;48.10;;;;;;5077214;28;20024;-90
2021/12/13 07:54:04;;;;;;;2.58;0.55;;;20.40;48.10;;;;;;5077139;28;20463;-90
2021/12/13 07:56:33;;;;;;;3.03;0.90;;;20.40;48.10;;;;;;5077174;28;20024;-93
2021/12/13 07:59:17;;;;;;;9.25;1.00;;;20.40;48.30;;;;;;5072579;28;20021;-90
2021/12/13 08:01:56;;;;;;;4.13;0.80;;;20.40;48.30;;;;;;5088835;28;20481;-89
2021/12/13 08:04:27;;;;;;;2.95;0.80;;;20.40;48.30;;;;;;5066641;28;20420;-91
2021/12/13 08:06:56;;;;;;;1.63;0.63;;;20.40;48.30;;;;;;5057069;28;20025;-89
2021/12/13 08:09:26;;;;;;;4.32;0.60;;;20.40;48.40;;;;;;5040378;28;20056;-90
2021/12/13 08:12:03;;;;;;;4.30;1.00;;;20.40;48.40;;;;;;5040630;28;20485;-90
2021/12/13 08:14:36;;;;;;;3.20;0.70;;;20.40;48.50;;;;;;5056967;28;20021;-90
2021/12/13 08:17:15;;;;;;;;;;;20.40;48.60;;;;;;5075197;28;20040;-88
2021/12/13 08:19:43;;;;;;;3.40;0.80;;;20.30;48.60;;;;;;5056740;28;19915;-89
2021/12/13 08:22:17;;;;;;;4.60;0.75;;;20.30;48.70;;;;;;5056236;28;20037;-90
2021/12/13 08:24:48;;;;;;;2.72;0.60;;;20.30;48.70;;;;;;5074140;28;20021;-89
2021/12/13 08:27:23;;;;;;;5.75;1.00;;;20.30;48.70;;;;;;5056742;28;20090;-91
2021/12/13 08:29:50;;;;;;;5.00;1.02;;;20.30;48.60;;;;;;5074557;28;20028;-90
2021/12/13 08:32:23;;;;;;;7.00;1.00;;;20.30;48.50;;;;;;5056243;28;20024;-91
2021/12/13 08:34:53;;;;;;;6.43;1.10;;;20.30;48.50;;;;;;5056313;28;20082;-90
2021/12/13 08:37:24;;;;;;;3.92;0.77;;;20.30;48.50;;;;;;5039754;28;20032;-90
2021/12/13 08:39:55;;;;;;;8.63;0.82;;;20.30;48.50;;;;;;5056015;28;20119;-89
2021/12/13 08:42:25;;;;;;;3.65;0.75;;;20.30;48.60;;;;;;5055997;28;20397;-91
2021/12/13 08:45:03;;;;;;;7.88;0.90;;;20.30;48.60;;;;;;5056147;28;20389;-90
2021/12/13 08:47:43;;;;;;;2.97;0.85;;;20.30;48.50;;;;;;5056026;28;20020;-89
2021/12/13 08:50:23;;;;;;;4.63;0.80;;;20.30;48.50;;;;;;5073856;28;20094;-89
2021/12/13 08:52:56;;;;;;;4.20;0.70;;;20.30;48.60;;;;;;5056212;28;20036;-89
2021/12/13 08:55:31;;;;;;;4.25;0.80;;;20.30;48.60;;;;;;5055762;28;20031;-90
2021/12/13 08:58:14;;;;;;;6.45;0.90;;;20.30;48.60;;;;;;5073875;28;20082;-89
2021/12/13 09:00:46;;;;;;;6.82;0.73;;;20.30;48.70;;;;;;5055789;28;20041;-90
2021/12/13 09:03:26;;;;;;;7.82;1.10;;;20.30;48.70;;;;;;5055670;28;20424;-89
2021/12/13 09:05:52;;;;;;;3.33;0.80;;;20.30;48.70;;;;;;5055784;28;20125;-89
2021/12/13 09:08:34;;;;;;;3.97;0.60;;;20.30;48.70;;;;;;5073479;28;20056;-91
2021/12/13 09:11:15;;;;;;;1.42;0.70;;;20.30;48.70;;;;;;5055996;28;20070;-89
2021/12/13 09:13:49;;;;;;;7.72;1.13;;;20.30;48.70;;;;;;5055526;28;20029;-89
2021/12/13 09:16:20;;;;;;;5.45;1.00;;;20.30;48.70;;;;;;5055499;28;20029;-90
2021/12/13 09:18:48;;;;;;;2.60;0.65;;;20.30;48.70;;;;;;5055475;28;20081;-89
2021/12/13 09:21:18;;;;;;;7.43;0.70;;;20.30;48.70;;;;;;5073091;28;20032;-90
2021/12/13 09:23:50;;;;;;;6.65;0.90;;;20.30;48.70;;;;;;5073221;28;20043;-90
2021/12/13 09:26:21;;;;;;;4.57;0.70;;;20.30;48.90;;;;;;5039546;28;20029;-88
2021/12/13 09:28:52;;;;;;;2.95;0.80;;;20.30;48.80;;;;;;5055663;28;20024;-90
2021/12/13 09:31:28;;;;;;;4.65;0.70;;;20.30;48.80;;;;;;5055248;28;20420;-90
2021/12/13 09:34:05;;;;;;;3.85;1.10;;;20.30;48.70;;;;;;5062208;28;20020;-89
2021/12/13 09:36:36;;;;;;;11.15;1.25;;;20.30;48.80;;;;;;5059166;28;20024;-91
2021/12/13 09:39:17;;;;;;;6.00;1.30;;;20.30;48.80;;;;;;5093375;28;20040;-89
2021/12/13 09:41:58;;;;;;;3.92;1.40;;;20.30;48.70;;;;;;5075286;28;20055;-89
2021/12/13 09:44:40;;;;;;;3.65;1.35;;;20.30;48.70;;;;;;5075099;28;20028;-90
2021/12/13 09:47:10;;;;;;;5.35;1.83;;;20.30;48.70;;;;;;5093247;28;20024;-89
2021/12/13 09:49:39;;;;;;;5.47;1.70;;;20.30;48.70;;;;;;5092714;28;20534;-86
2021/12/13 09:52:27;;;;;;;5.80;2.03;;;20.30;48.70;;;;;;5074679;28;20384;-88
2021/12/13 09:54:55;;;;;;;8.48;1.92;;;20.30;48.50;;;;;;5093193;28;20042;-88
2021/12/13 09:57:51;;;;;;;5.35;1.88;;;20.30;48.50;;;;;;5092572;28;20388;-90
2021/12/13 10:00:23;;;;;;;4.90;2.00;;;20.30;48.40;;;;;;5063415;28;20028;-89
2021/12/13 10:02:53;;;;;;;5.07;1.83;;;20.30;48.50;;;;;;5093178;28;20034;-89
2021/12/13 10:05:25;;;;;;;5.15;1.88;;;20.30;48.50;;;;;;5074616;28;20132;-90
2021/12/13 10:07:55;;;;;;;4.72;1.70;;;20.30;48.40;;;;;;5092606;28;20023;-89
2021/12/13 10:10:39;;;;;;;4.93;1.83;;;20.30;48.40;;;;;;5073974;28;20011;-89
2021/12/13 10:13:11;;;;;;;4.70;1.95;;;20.30;48.30;;;;;;5092424;28;20496;-89
2021/12/13 10:15:46;;;;;;;4.00;1.63;;;20.30;48.30;;;;;;5092735;28;20081;-89
2021/12/13 10:18:21;;;;;;;3.55;1.75;;;20.40;48.30;;;;;;5092659;28;20024;-89
2021/12/13 10:20:58;;;;;;;5.28;1.48;;;20.40;48.30;;;;;;5058627;28;20039;-90
2021/12/13 10:23:31;;;;;;;3.70;1.60;;;20.40;48.20;;;;;;5092118;28;20024;-91
2021/12/13 10:26:00;;;;;;;5.93;1.83;;;20.40;48.10;;;;;;5089714;28;20531;-90
2021/12/13 10:28:29;;;;;;;4.78;1.95;;;20.40;48.00;;;;;;5082445;28;20043;-89
2021/12/13 10:31:03;;;;;;;5.32;1.48;;;20.50;48.00;;;;;;5092427;28;20157;-89
2021/12/13 10:33:31;;;;;;;3.03;1.40;;;20.50;47.90;;;;;;5073684;28;20110;-90
2021/12/13 10:36:00;;;;;;;3.03;1.27;;;20.50;47.90;;;;;;5074325;28;20020;-89
2021/12/13 10:38:33;;;;;;;4.75;1.25;;;20.60;47.80;;;;;;5073975;28;20020;-90
2021/12/13 10:41:08;;;;;;;3.63;1.40;;;20.60;47.80;;;;;;5073391;28;20083;-89
2021/12/13 10:43:41;;;;;;;4.80;1.58;;;20.70;47.90;;;;;;5074193;28;20024;-90
2021/12/13 10:46:20;;;;;;;2.63;1.00;;;20.70;47.70;;;;;;5073309;28;20063;-90
2021/12/13 10:48:50;;;;;;;5.53;1.30;;;20.70;47.70;;;;;;5074306;28;20040;-89
2021/12/13 10:51:20;;;;;;;4.03;1.30;;;20.80;47.70;;;;;;5074196;28;20047;-89
2021/12/13 10:53:48;;;;;;;2.10;1.13;;;20.80;47.70;;;;;;5092152;28;20063;-92
2021/12/13 10:56:40;;;;;;;4.88;1.40;;;20.80;47.70;;;;;;5074347;28;20032;-88
2021/12/13 10:59:10;;;;;;;3.08;1.10;;;20.80;47.60;;;;;;5074259;28;20051;-90
2021/12/13 11:01:44;;;;;;;5.38;1.30;;;20.80;47.60;;;;;;5090932;28;20032;-90
2021/12/13 11:04:19;;;;;;;3.20;1.20;;;20.90;47.70;;;;;;5071307;28;20048;-91
2021/12/13 11:06:46;;;;;;;3.47;1.20;;;20.90;47.60;;;;;;5072312;28;20029;-91
2021/12/13 11:09:19;;;;;;;3.33;1.10;;;20.90;47.60;;;;;;5071516;28;20099;-91
2021/12/13 11:12:04;;;;;;;7.82;1.27;;;20.90;47.60;;;;;;5053824;28;20032;-91
2021/12/13 11:14:31;;;;;;;3.30;1.38;;;20.90;47.60;;;;;;5053895;28;20016;-91
2021/12/13 11:17:04;;;;;;;5.53;1.17;;;20.90;47.60;;;;;;5053450;28;20055;-91
2021/12/13 11:19:35;;;;;;;1.48;1.05;;;20.90;47.60;;;;;;5057236;28;20115;-91
2021/12/13 11:22:14;;;;;;;5.50;1.30;;;20.90;47.60;;;;;;5057027;28;20123;-91
2021/12/13 11:24:43;;;;;;;3.40;1.17;;;20.90;47.60;;;;;;5057430;28;20029;-90
2021/12/13 11:27:18;;;;;;;3.80;1.27;;;20.90;47.60;;;;;;5041327;28;20039;-92
2021/12/13 11:29:45;;;;;;;4.47;1.40;;;20.90;47.60;;;;;;5057634;28;20064;-91
2021/12/13 11:32:38;;;;;;;3.50;1.10;;;20.90;47.70;;;;;;5058166;28;20021;-91
2021/12/13 11:35:07;;;;;;;;;;;20.90;47.70;;;;;;5075979;28;20021;-90
2021/12/13 11:38:20;;;;;;;3.83;1.10;;;20.90;47.80;;;;;;5057732;28;20023;-92
2021/12/13 11:41:23;;;;;;;1.98;0.85;;;20.90;47.80;;;;;;5057177;28;20076;-91
2021/12/13 11:44:26;;;;;;;5.25;1.63;;;20.90;47.90;;;;;;5075278;28;20028;-89
2021/12/13 11:47:07;;;;;;;5.25;1.30;;;20.90;47.90;;;;;;5078978;28;20084;-94
2021/12/13 11:50:10;;;;;;;3.53;1.38;;;20.80;48.00;;;;;;5064316;28;20074;-94
2021/12/13 11:53:13;;;;;;;7.22;1.90;;;20.90;48.10;;;;;;5078165;28;20021;-92
2021/12/13 11:56:06;;;;;;;4.15;1.80;;;20.80;48.10;;;;;;5078072;28;20478;-92
2021/12/13 11:58:31;;;;;;;5.80;1.45;;;20.90;48.20;;;;;;5057545;28;20040;-92
2021/12/13 12:01:16;;;;;;;5.03;1.60;;;20.80;48.30;;;;;;5057513;28;20025;-92
2021/12/13 12:04:19;;;;;;;3.67;1.40;;;20.80;48.20;;;;;;5075244;28;20021;-91
2021/12/13 12:07:14;;;;;;;7.20;1.80;;;20.80;48.30;;;;;;5075116;28;20461;-91
2021/12/13 12:09:55;;;;;;;4.75;1.40;;;20.80;48.40;;;;;;5057261;28;20036;-92
2021/12/13 12:12:38;;;;;;;5.32;1.80;;;20.80;48.50;;;;;;5057015;28;20025;-91
2021/12/13 12:15:06;;;;;;;4.57;1.23;;;20.70;48.50;;;;;;5056979;28;20070;-91
2021/12/13 12:17:34;;;;;;;7.22;1.50;;;20.80;48.70;;;;;;5057024;28;20040;-91
2021/12/13 12:20:00;;;;;;;3.08;1.55;;;20.70;48.70;;;;;;5074970;28;20016;-91
2021/12/13 12:22:52;;;;;;;5.22;1.45;;;20.70;48.70;;;;;;5074924;28;20032;-91
2021/12/13 12:25:23;;;;;;;5.10;1.67;;;20.80;48.80;;;;;;5074731;28;20705;-91
2021/12/13 12:27:54;;;;;;;4.93;1.20;;;20.70;48.80;;;;;;5074763;28;20025;-91
2021/12/13 12:30:24;;;;;;;6.30;1.33;;;20.70;48.90;;;;;;5074024;28;20035;-91
2021/12/13 12:32:57;;;;;;;4.55;1.40;;;20.70;48.90;;;;;;5074720;28;20481;-91
2021/12/13 12:35:32;;;;;;;4.93;1.17;;;20.70;49.00;;;;;;5056545;28;20033;-91
2021/12/13 12:38:00;;;;;;;4.60;1.27;;;20.70;49.00;;;;;;5056681;28;20024;-91
2021/12/13 12:41:03;;;;;;;4.88;1.55;;;20.70;49.10;;;;;;5056200;28;20130;-91
2021/12/13 12:43:35;;;;;;;7.25;1.45;;;20.70;49.00;;;;;;5056460;28;20056;-91
2021/12/13 12:46:08;;;;;;;8.43;1.50;;;20.70;49.10;;;;;;5056798;28;20075;-92
2021/12/13 12:48:36;;;;;;;6.45;1.80;;;20.70;49.20;;;;;;5056224;28;20440;-92
2021/12/13 12:51:08;;;;;;;4.22;1.20;;;20.60;49.20;;;;;;5056601;28;20081;-91
2021/12/13 12:53:37;;;;;;;5.68;1.33;;;20.70;49.20;;;;;;5056295;28;20020;-92
2021/12/13 12:56:18;;;;;;;4.53;1.27;;;20.60;49.30;;;;;;5056500;28;20017;-92
2021/12/13 12:59:06;;;;;;;8.95;1.58;;;20.70;49.20;;;;;;5056218;28;20052;-92
2021/12/13 13:01:45;;;;;;;6.80;1.70;;;20.70;49.30;;;;;;5056384;28;20119;-91
2021/12/13 13:04:14;;;;;;;7.00;1.77;;;20.70;49.30;;;;;;5074210;28;20153;-93
2021/12/13 13:06:52;;;;;;;5.70;1.38;;;20.70;49.40;;;;;;5054983;28;20420;-92
2021/12/13 13:09:18;;;;;;;6.07;1.45;;;20.60;49.30;;;;;;5056201;28;20048;-91
2021/12/13 13:11:50;;;;;;;8.88;1.63;;;20.60;49.30;;;;;;5056108;28;20115;-91
2021/12/13 13:14:30;;;;;;;9.20;1.88;;;20.70;49.40;;;;;;5056081;28;20027;-95
2021/12/13 13:16:59;;;;;;;10.43;1.83;;;20.60;49.40;;;;;;5073219;28;20037;-91
2021/12/13 13:19:34;;;;;;;10.65;1.70;;;20.70;49.60;;;;;;5056023;28;20031;-92
2021/12/13 13:22:06;;;;;;;9.15;1.85;;;20.70;49.60;;;;;;5073385;28;20047;-92
2021/12/13 13:24:45;;;;;;;8.57;1.60;;;20.70;49.50;;;;;;5055925;28;20029;-92
2021/12/13 13:27:11;;;;;;;9.75;1.65;;;20.80;49.50;;;;;;5055678;28;20032;-91
2021/12/13 13:29:39;;;;;;;10.35;1.83;;;20.90;49.40;;;;;;5073401;28;20107;-92
2021/12/13 13:32:09;;;;;;;10.13;1.67;;;21.00;49.30;;;;;;5055732;28;20084;-92
2021/12/13 13:34:39;;;;;;;8.65;1.60;;;21.10;49.20;;;;;;5039759;28;20028;-92
2021/12/13 13:37:16;;;;;;;9.75;1.90;;;21.20;49.00;;;;;;5055677;28;20389;-92